Time;durP1;ratioP1;P1;durP2;ratioP2;P2;SDS_P1;SDS_P2;PMS_P1;PMS_P2;Temp;Humidity;BMP_temperature;BMP_pressure;BME280_temperature;BME280_humidity;BME280_pressure;Samples;Min_cycle;Max_cycle;Signal;HPM_P1;HPM_P2
2022/11/19 00:00:06;;;;;;;;;;;;;;;9.53;56.53;101083.19;5023002;28;19936;-69
2022/11/19 00:02:31;;;;;;;;;;;;;;;9.46;57.29;101076.22;5022512;28;19913;-69
2022/11/19 00:04:57;;;;;;;;;;;;;;;8.92;57.90;101089.16;5024242;28;19929;-69
2022/11/19 00:07:22;;;;;;;;;;;;;;;8.84;58.29;101090.19;5024092;28;19925;-69
2022/11/19 00:09:47;;;;;;;;;;;;;;;9.40;57.44;101096.66;5023804;28;20284;-69
2022/11/19 00:14:56;;;;;;;;;;;;;;;9.62;56.31;101091.84;5030397;28;19923;-69
2022/11/19 00:17:21;;;;;;;;;;;;;;;8.97;57.15;101097.38;5013383;28;20392;-69
2022/11/19 00:19:47;;;;;;;;;;;;;;;9.34;56.51;101100.19;5030951;28;19925;-69
2022/11/19 00:22:12;;;;;;;;;;;;;;;8.60;57.65;101097.00;5029962;28;20012;-69
2022/11/19 00:24:38;;;;;;;;;;;;;;;8.65;58.06;101107.06;5029623;28;19925;-68
2022/11/19 00:27:03;;;;;;;;;;;;;;;9.55;55.57;101110.63;5029317;28;19967;-68
2022/11/19 00:29:29;;;;;;;;;;;;;;;9.32;55.85;101104.94;5028207;28;19956;-68
2022/11/19 00:31:54;;;;;;;;;;;;;;;9.08;56.56;101102.13;5025806;28;20429;-69
2022/11/19 00:34:19;;;;;;;;;;;;;;;8.88;57.80;101112.03;5025523;28;20385;-69
2022/11/19 00:36:44;;;;;;;;;;;;;;;8.62;58.12;101111.03;5025875;28;19974;-69
2022/11/19 00:39:10;;;;;;;;;;;;;;;9.67;55.43;101122.38;5026035;28;19963;-69
2022/11/19 00:41:35;;;;;;;;;;;;;;;8.87;56.15;101111.19;5025201;28;19929;-69
2022/11/19 00:44:00;;;;;;;;;;;;;;;9.68;54.80;101124.03;5039157;28;20388;-69
2022/11/19 00:46:29;;;;;;;;;;;;;;;9.27;55.48;101120.84;5019777;28;19921;-69
2022/11/19 00:48:55;;;;;;;;;;;;;;;9.70;54.23;101129.16;5027015;28;20426;-69
2022/11/19 00:51:21;;;;;;;;;;;;;;;9.52;54.99;101131.69;5032429;28;20385;-68
2022/11/19 00:53:46;;;;;;;;;;;;;;;9.48;55.00;101133.16;5013324;28;19914;-67
2022/11/19 00:56:13;;;;;;;;;;;;;;;9.77;53.39;101130.78;5020777;28;19928;-68
2022/11/19 00:58:38;;;;;;;;;;;;;;;9.38;54.50;101138.97;5022889;28;19922;-68
2022/11/19 01:01:04;;;;;;;;;;;;;;;9.27;54.54;101136.09;5021289;28;19944;-68
2022/11/19 01:03:29;;;;;;;;;;;;;;;9.71;53.45;101142.38;5022776;28;19971;-68
2022/11/19 01:05:55;;;;;;;;;;;;;;;9.46;53.91;101162.06;5022899;28;20409;-67
2022/11/19 01:08:20;;;;;;;;;;;;;;;9.60;52.96;101151.09;5020979;28;19925;-68
2022/11/19 01:10:45;;;;;;;;;;;;;;;9.69;53.76;101160.53;5022925;28;19925;-68
2022/11/19 01:15:54;;;;;;;;;;;;;;;9.72;53.29;101167.34;5033750;28;19943;-67
2022/11/19 01:18:20;;;;;;;;;;;;;;;9.87;53.41;101167.91;5032499;28;19918;-68
2022/11/19 01:20:46;;;;;;;;;;;;;;;9.88;52.99;101166.88;5032363;28;20017;-66
2022/11/19 01:23:12;;;;;;;;;;;;;;;8.71;56.05;101178.59;5031784;28;19932;-67
2022/11/19 01:25:37;;;;;;;;;;;;;;;9.61;53.42;101182.22;5031871;28;19925;-67
2022/11/19 01:28:03;;;;;;;;;;;;;;;9.25;54.19;101192.63;5031854;28;19925;-68
2022/11/19 01:30:28;;;;;;;;;;;;;;;9.32;53.48;101187.25;5031711;28;19925;-68
2022/11/19 01:32:53;;;;;;;;;;;;;;;9.58;52.56;101189.88;5032209;28;19971;-68
2022/11/19 01:35:19;;;;;;;;;;;;;;;9.32;53.51;101189.91;5031686;28;20007;-68
2022/11/19 01:37:45;;;;;;;;;;;;;;;9.63;52.95;101190.91;5031592;28;19928;-68
2022/11/19 01:40:10;;;;;;;;;;;;;;;9.10;53.31;101200.03;5031192;28;19921;-68
2022/11/19 01:42:52;;;;;;;;;;;;;;;8.60;55.76;101195.28;5031688;28;19917;-68
2022/11/19 01:45:26;;;;;;;;;;;;;;;9.42;52.49;101199.19;5031929;28;19943;-68
2022/11/19 01:47:52;;;;;;;;;;;;;;;9.25;53.20;101206.03;5032242;28;19909;-67
2022/11/19 01:50:18;;;;;;;;;;;;;;;9.47;53.81;101204.75;5031297;28;20289;-69
2022/11/19 01:52:43;;;;;;;;;;;;;;;9.20;52.60;101203.13;5013212;28;20008;-69
2022/11/19 01:55:08;;;;;;;;;;;;;;;9.30;52.59;101203.53;5031677;28;20320;-68
2022/11/19 01:57:36;;;;;;;;;;;;;;;8.98;53.30;101206.25;5031349;28;20328;-68
2022/11/19 02:00:03;;;;;;;;;;;;;;;9.34;52.62;101206.63;5013638;28;20012;-70
2022/11/19 02:02:28;;;;;;;;;;;;;;;9.28;53.05;101212.81;5031559;28;19919;-69
2022/11/19 02:04:56;;;;;;;;;;;;;;;9.42;51.98;101212.63;5031118;28;19921;-69
2022/11/19 02:07:27;;;;;;;;;;;;;;;8.70;53.48;101217.97;5031349;28;20391;-66
2022/11/19 02:09:53;;;;;;;;;;;;;;;8.44;54.70;101217.91;5031407;28;20025;-67
2022/11/19 02:12:24;;;;;;;;;;;;;;;8.73;53.59;101219.41;5032947;28;19962;-68
2022/11/19 02:14:57;;;;;;;;;;;;;;;8.85;53.49;101218.59;5031678;28;19967;-67
2022/11/19 02:17:31;;;;;;;;;;;;;;;9.21;52.64;101215.53;5031204;28;20096;-69
2022/11/19 02:20:05;;;;;;;;;;;;;;;9.49;51.71;101216.09;5031136;28;20380;-68
2022/11/19 02:22:37;;;;;;;;;;;;;;;9.66;50.81;101222.69;5031076;28;19925;-68
2022/11/19 02:25:11;;;;;;;;;;;;;;;9.72;50.94;101221.84;5030813;28;20007;-69
2022/11/19 02:27:39;;;;;;;;;;;;;;;9.55;51.52;101222.50;5031020;28;19929;-68
2022/11/19 02:30:15;;;;;;;;;;;;;;;9.67;51.53;101226.19;5030917;28;20293;-68
2022/11/19 02:32:48;;;;;;;;;;;;;;;9.81;50.16;101229.69;5031429;28;19921;-68
2022/11/19 02:35:17;;;;;;;;;;;;;;;9.39;51.55;101221.09;5031004;28;19921;-68
2022/11/19 02:37:45;;;;;;;;;;;;;;;8.80;52.35;101231.78;5030876;28;19921;-68
2022/11/19 02:40:18;;;;;;;;;;;;;;;9.18;50.62;101231.22;5030759;28;20389;-67
2022/11/19 02:42:51;;;;;;;;;;;;;;;9.03;52.07;101228.72;5030905;28;19917;-68
2022/11/19 02:45:30;;;;;;;;;;;;;;;9.29;51.43;101220.69;5031072;28;19917;-68
2022/11/19 02:47:58;;;;;;;;;;;;;;;9.20;50.94;101229.94;5031807;28;19913;-68
2022/11/19 02:50:26;;;;;;;;;;;;;;;9.28;50.08;101227.06;5030806;28;20417;-68
2022/11/19 02:52:52;;;;;;;;;;;;;;;9.14;50.67;101241.50;5033248;28;19940;-68
2022/11/19 02:55:19;;;;;;;;;;;;;;;8.74;51.41;101223.75;5034882;28;20016;-68
2022/11/19 02:57:48;;;;;;;;;;;;;;;8.75;52.02;101226.22;5034979;28;19944;-68
2022/11/19 03:05:50;;;;;;;;;;;;;;;8.48;52.00;101239.75;5034451;28;20063;-67
2022/11/19 03:08:16;;;;;;;;;;;;;;;9.03;51.72;101228.72;5034744;28;19928;-67
2022/11/19 03:10:55;;;;;;;;;;;;;;;8.12;52.99;101241.88;5035494;28;19925;-67
2022/11/19 03:19:03;;;;;;;;;;;;;;;8.18;52.83;101241.03;5034531;28;19924;-68
2022/11/19 03:21:39;;;;;;;;;;;;;;;8.76;50.99;101240.44;5034269;28;20348;-68
2022/11/19 03:24:25;;;;;;;;;;;;;;;8.39;50.84;101244.44;5032706;28;19913;-69
2022/11/19 03:26:57;;;;;;;;;;;;;;;8.36;51.84;101239.50;4992610;28;19922;-68
2022/11/19 03:29:24;;;;;;;;;;;;;;;8.05;52.32;101246.34;4973219;28;20071;-68
2022/11/19 03:31:52;;;;;;;;;;;;;;;8.25;51.59;101247.31;4972461;28;20336;-67
2022/11/19 03:34:19;;;;;;;;;;;;;;;8.95;50.28;101250.34;4972653;28;19922;-68
2022/11/19 03:36:45;;;;;;;;;;;;;;;8.86;49.78;101246.25;4972451;28;19949;-67
2022/11/19 03:39:12;;;;;;;;;;;;;;;8.37;51.82;101251.84;4972529;28;20434;-68
2022/11/19 03:41:38;;;;;;;;;;;;;;;8.13;51.83;101248.84;4973035;28;19917;-67
2022/11/19 03:44:09;;;;;;;;;;;;;;;8.78;49.81;101249.94;4972590;28;19922;-67
2022/11/19 03:46:36;;;;;;;;;;;;;;;7.83;51.45;101259.81;4972518;28;20430;-67
2022/11/19 03:49:02;;;;;;;;;;;;;;;8.40;50.61;101264.88;4972451;28;20325;-67
2022/11/19 03:51:47;;;;;;;;;;;;;;;8.61;49.97;101272.75;4972111;28;19969;-68
2022/11/19 03:54:13;;;;;;;;;;;;;;;8.49;49.74;101262.84;4973830;28;19925;-69
2022/11/19 03:56:39;;;;;;;;;;;;;;;8.65;49.67;101270.50;4992454;28;20146;-68
2022/11/19 03:59:04;;;;;;;;;;;;;;;7.60;52.61;101278.00;4991633;28;20012;-68
2022/11/19 04:01:30;;;;;;;;;;;;;;;7.90;51.93;101282.09;4991586;28;20044;-68
2022/11/19 04:06:39;;;;;;;;;;;;;;;8.43;50.07;101274.34;5035329;28;19943;-68
2022/11/19 04:09:04;;;;;;;;;;;;;;;8.30;49.73;101277.78;5033535;28;19917;-68
2022/11/19 04:11:29;;;;;;;;;;;;;;;8.32;49.98;101275.75;5033953;28;20388;-68
2022/11/19 04:13:54;;;;;;;;;;;;;;;7.92;50.55;101289.94;5033391;28;19921;-68
2022/11/19 04:16:20;;;;;;;;;;;;;;;8.08;49.95;101292.25;5033239;28;19952;-68
2022/11/19 04:18:45;;;;;;;;;;;;;;;8.20;50.13;101289.84;5033377;28;19921;-69
2022/11/19 04:21:10;;;;;;;;;;;;;;;8.50;49.42;101294.78;5033080;28;20488;-68
2022/11/19 04:23:35;;;;;;;;;;;;;;;7.87;50.35;101303.91;5033310;28;19920;-68
2022/11/19 04:26:01;;;;;;;;;;;;;;;7.43;52.02;101308.69;5033336;28;19921;-69
2022/11/19 04:28:26;;;;;;;;;;;;;;;8.23;50.09;101305.53;5033489;28;20372;-69
2022/11/19 04:30:51;;;;;;;;;;;;;;;8.04;50.31;101306.25;5032904;28;20381;-67
2022/11/19 04:33:16;;;;;;;;;;;;;;;7.71;51.44;101316.72;5032836;28;19917;-67
2022/11/19 04:35:45;;;;;;;;;;;;;;;7.34;52.47;101317.03;5033558;28;19908;-69
2022/11/19 04:38:10;;;;;;;;;;;;;;;7.72;50.42;101316.56;5032706;28;19927;-67
2022/11/19 04:40:35;;;;;;;;;;;;;;;8.15;50.72;101319.91;5033004;28;20015;-68
2022/11/19 04:43:00;;;;;;;;;;;;;;;8.34;49.11;101319.22;5032887;28;20355;-68
2022/11/19 04:45:25;;;;;;;;;;;;;;;7.73;50.05;101317.38;5032762;28;19921;-69
2022/11/19 04:47:51;;;;;;;;;;;;;;;7.51;51.00;101318.44;5033220;28;20003;-68
2022/11/19 04:50:16;;;;;;;;;;;;;;;7.79;50.16;101322.78;5032640;28;20340;-69
2022/11/19 04:52:41;;;;;;;;;;;;;;;7.52;51.41;101323.59;5032475;28;19917;-68
2022/11/19 04:55:07;;;;;;;;;;;;;;;7.71;50.23;101336.28;5032481;28;20369;-67
2022/11/19 04:57:32;;;;;;;;;;;;;;;7.52;50.57;101331.63;5032581;28;19929;-68
2022/11/19 04:59:57;;;;;;;;;;;;;;;7.32;51.09;101329.78;5033281;28;19921;-69
2022/11/19 05:02:22;;;;;;;;;;;;;;;7.42;50.76;101335.63;5029573;28;20420;-68
2022/11/19 05:04:47;;;;;;;;;;;;;;;7.19;51.57;101341.19;5031923;28;20003;-69
2022/11/19 05:07:13;;;;;;;;;;;;;;;7.69;49.93;101343.69;5031560;28;19917;-68
2022/11/19 05:09:38;;;;;;;;;;;;;;;7.34;50.24;101349.97;5030119;28;19967;-68
2022/11/19 05:12:03;;;;;;;;;;;;;;;6.88;51.09;101354.81;5032047;28;19991;-68
2022/11/19 05:14:28;;;;;;;;;;;;;;;7.52;50.33;101362.88;5031315;28;19960;-68
2022/11/19 05:16:54;;;;;;;;;;;;;;;7.21;50.80;101351.69;5017254;28;19928;-68
2022/11/19 05:19:19;;;;;;;;;;;;;;;6.57;51.37;101366.78;5043030;28;19921;-66
2022/11/19 05:21:44;;;;;;;;;;;;;;;6.82;52.15;101360.13;5052099;28;20288;-68
2022/11/19 05:24:09;;;;;;;;;;;;;;;7.18;51.49;101360.06;5042187;28;19913;-69
2022/11/19 05:26:35;;;;;;;;;;;;;;;6.79;51.81;101358.63;5032569;28;20358;-69
2022/11/19 05:29:02;;;;;;;;;;;;;;;6.78;51.81;101364.97;5031975;28;19921;-69
2022/11/19 05:31:28;;;;;;;;;;;;;;;6.79;51.18;101361.31;5031590;28;19929;-69
2022/11/19 05:33:54;;;;;;;;;;;;;;;7.26;50.40;101362.63;5031977;28;19921;-68
2022/11/19 05:36:19;;;;;;;;;;;;;;;6.60;51.48;101367.25;5031632;28;19914;-67
2022/11/19 05:38:44;;;;;;;;;;;;;;;7.10;51.57;101355.69;5032290;28;20365;-69
2022/11/19 05:41:09;;;;;;;;;;;;;;;6.55;51.99;101366.97;5031902;28;20401;-68
2022/11/19 05:43:35;;;;;;;;;;;;;;;6.72;52.23;101376.41;5032084;28;20423;-67
2022/11/19 05:46:02;;;;;;;;;;;;;;;6.81;51.46;101369.97;5031642;28;19925;-69
2022/11/19 05:48:28;;;;;;;;;;;;;;;6.71;51.29;101366.75;5032290;28;19921;-67
2022/11/19 05:50:53;;;;;;;;;;;;;;;6.71;51.33;101366.75;5032117;28;19928;-68
2022/11/19 05:53:18;;;;;;;;;;;;;;;6.87;50.59;101369.22;5031240;28;19932;-68
2022/11/19 05:55:43;;;;;;;;;;;;;;;6.73;51.19;101375.41;5031731;28;19972;-68
2022/11/19 05:58:09;;;;;;;;;;;;;;;6.68;51.48;101377.78;5033631;28;20003;-68
2022/11/19 06:00:34;;;;;;;;;;;;;;;6.57;51.65;101380.13;5031853;28;19959;-68
2022/11/19 06:02:59;;;;;;;;;;;;;;;6.48;51.80;101376.75;5031940;28;19975;-68
2022/11/19 06:05:24;;;;;;;;;;;;;;;6.19;52.86;101385.56;5031551;28;20058;-68
2022/11/19 06:07:49;;;;;;;;;;;;;;;5.97;53.10;101383.81;5031142;28;20063;-68
2022/11/19 06:10:15;;;;;;;;;;;;;;;6.30;52.55;101389.63;5031606;28;19925;-67
2022/11/19 06:12:41;;;;;;;;;;;;;;;6.28;52.93;101393.47;5032367;28;19928;-68
2022/11/19 06:15:06;;;;;;;;;;;;;;;5.93;53.80;101390.53;5032066;28;20015;-69
2022/11/19 06:17:32;;;;;;;;;;;;;;;6.30;52.69;101402.97;5032920;28;19905;-69
2022/11/19 06:19:57;;;;;;;;;;;;;;;6.33;52.38;101397.25;5032163;28;19921;-69
2022/11/19 06:22:23;;;;;;;;;;;;;;;5.77;53.24;101411.13;5032286;28;19917;-68
2022/11/19 06:24:48;;;;;;;;;;;;;;;6.09;52.58;101409.00;5031857;28;19925;-70
2022/11/19 06:27:13;;;;;;;;;;;;;;;5.93;53.37;101411.03;5031737;28;19913;-68
2022/11/19 06:29:38;;;;;;;;;;;;;;;5.86;53.00;101416.25;5032521;28;19917;-68
2022/11/19 06:32:03;;;;;;;;;;;;;;;6.22;52.68;101425.25;5031832;28;19925;-68
2022/11/19 06:34:29;;;;;;;;;;;;;;;6.09;52.83;101427.69;5032068;28;20360;-68
2022/11/19 06:36:54;;;;;;;;;;;;;;;5.51;53.80;101432.00;5031802;28;19966;-68
2022/11/19 06:39:19;;;;;;;;;;;;;;;5.68;53.62;101433.56;5031842;28;19987;-68
2022/11/19 06:41:47;;;;;;;;;;;;;;;6.04;52.83;101439.91;5032399;28;19921;-67
2022/11/19 06:44:12;;;;;;;;;;;;;;;6.06;52.69;101432.56;5031999;28;20004;-69
2022/11/19 06:46:37;;;;;;;;;;;;;;;5.95;52.42;101433.00;5031763;28;20006;-67
2022/11/19 06:49:04;;;;;;;;;;;;;;;5.88;52.50;101442.72;5031948;28;19921;-68
2022/11/19 06:51:29;;;;;;;;;;;;;;;5.67;53.28;101446.03;5031825;28;19925;-68
2022/11/19 06:53:54;;;;;;;;;;;;;;;6.16;51.99;101441.13;5034140;28;20374;-68
2022/11/19 06:56:20;;;;;;;;;;;;;;;6.09;51.98;101449.03;5031615;28;20395;-67
2022/11/19 06:58:45;;;;;;;;;;;;;;;6.11;51.75;101452.34;5031845;28;19921;-69
2022/11/19 07:01:10;;;;;;;;;;;;;;;5.90;52.74;101454.03;5031443;28;20308;-69
2022/11/19 07:03:36;;;;;;;;;;;;;;;5.79;52.23;101455.28;5031658;28;20324;-67
2022/11/19 07:06:03;;;;;;;;;;;;;;;6.29;51.31;101454.66;5031489;28;19917;-68
2022/11/19 07:08:32;;;;;;;;;;;;;;;6.04;51.19;101459.44;5031772;28;19920;-70
2022/11/19 07:10:57;;;;;;;;;;;;;;;5.79;52.67;101463.28;5031073;28;19945;-67
2022/11/19 07:13:22;;;;;;;;;;;;;;;5.04;54.21;101466.75;5031521;28;20296;-68
2022/11/19 07:15:48;;;;;;;;;;;;;;;5.69;52.11;101467.19;5030332;28;19951;-69
2022/11/19 07:18:13;;;;;;;;;;;;;;;6.02;51.69;101468.59;5031588;28;19924;-69
2022/11/19 07:20:38;;;;;;;;;;;;;;;5.82;51.42;101465.56;5032050;28;19917;-67
2022/11/19 07:23:08;;;;;;;;;;;;;;;6.04;52.00;101464.75;5031371;28;20352;-67
2022/11/19 07:25:33;;;;;;;;;;;;;;;6.19;51.69;101470.94;5011553;28;19922;-68
2022/11/19 07:27:58;;;;;;;;;;;;;;;5.80;52.13;101478.25;5011570;28;20008;-69
2022/11/19 07:30:24;;;;;;;;;;;;;;;5.79;52.13;101473.94;5011469;28;19980;-68
2022/11/19 07:32:49;;;;;;;;;;;;;;;5.93;51.90;101483.03;5011840;28;20011;-68
2022/11/19 07:35:14;;;;;;;;;;;;;;;5.81;52.29;101487.94;5011539;28;19921;-69
2022/11/19 07:37:39;;;;;;;;;;;;;;;5.77;51.87;101483.97;5012047;28;19953;-70
2022/11/19 07:40:05;;;;;;;;;;;;;;;5.66;51.94;101487.03;5015123;28;20488;-69
2022/11/19 07:42:48;;;;;;;;;;;;;;;5.88;51.37;101488.06;5015009;28;19922;-68
2022/11/19 07:45:14;;;;;;;;;;;;;;;6.24;50.71;101491.75;5015089;28;19918;-68
2022/11/19 07:47:39;;;;;;;;;;;;;;;6.36;50.31;101476.97;5015426;28;19956;-68
2022/11/19 07:50:05;;;;;;;;;;;;;;;6.01;51.00;101481.09;5021986;28;19990;-69
2022/11/19 07:52:30;;;;;;;;;;;;;;;5.67;51.88;101486.03;5034644;28;19928;-69
2022/11/19 07:54:55;;;;;;;;;;;;;;;5.52;53.05;101493.16;5034741;28;19925;-69
2022/11/19 07:57:21;;;;;;;;;;;;;;;5.57;53.21;101497.94;5034592;28;20328;-69
2022/11/19 07:59:46;;;;;;;;;;;;;;;6.01;51.53;101489.13;5035239;28;20361;-69
2022/11/19 08:02:12;;;;;;;;;;;;;;;6.31;50.90;101492.69;5034489;28;19917;-68
2022/11/19 08:04:37;;;;;;;;;;;;;;;6.04;52.31;101495.94;5034541;28;19925;-68
2022/11/19 08:07:02;;;;;;;;;;;;;;;5.92;51.37;101500.03;5034355;28;19917;-69
2022/11/19 08:09:27;;;;;;;;;;;;;;;6.06;50.95;101513.44;5034061;28;20373;-69
2022/11/19 08:11:53;;;;;;;;;;;;;;;5.96;51.51;101514.66;5034430;28;20366;-68
2022/11/19 08:14:18;;;;;;;;;;;;;;;5.77;52.62;101520.47;5034074;28;19978;-68
2022/11/19 08:19:27;;;;;;;;;;;;;;;5.96;51.65;101522.69;5034144;28;19948;-69
2022/11/19 08:21:52;;;;;;;;;;;;;;;5.52;52.94;101526.97;5034197;28;19917;-68
2022/11/19 08:24:18;;;;;;;;;;;;;;;6.04;50.94;101519.94;5033272;28;19917;-67
2022/11/19 08:26:43;;;;;;;;;;;;;;;6.15;51.46;101528.34;5033028;28;20428;-69
2022/11/19 08:29:09;;;;;;;;;;;;;;;6.34;50.97;101521.69;5033949;28;20032;-70
2022/11/19 08:31:34;;;;;;;;;;;;;;;6.40;50.69;101523.66;5033502;28;19956;-68
2022/11/19 08:34:02;;;;;;;;;;;;;;;6.04;51.09;101526.13;5016081;28;20288;-69
2022/11/19 08:36:27;;;;;;;;;;;;;;;6.32;50.00;101533.56;5033696;28;19927;-69
2022/11/19 08:38:55;;;;;;;;;;;;;;;6.01;50.78;101528.31;5034033;28;19917;-67
2022/11/19 08:44:04;;;;;;;;;;;;;;;5.86;50.83;101538.09;5033658;28;19928;-68
2022/11/19 08:46:29;;;;;;;;;;;;;;;6.48;49.48;101530.75;5017153;28;20326;-68
2022/11/19 08:48:55;;;;;;;;;;;;;;;6.30;49.93;101533.75;5033482;28;19928;-69
2022/11/19 08:51:20;;;;;;;;;;;;;;;6.72;48.88;101530.50;5033456;28;19921;-68
2022/11/19 08:53:45;;;;;;;;;;;;;;;6.57;49.68;101537.66;5033691;28;19917;-68
2022/11/19 08:56:11;;;;;;;;;;;;;;;6.25;50.19;101537.97;5033081;28;20015;-68
2022/11/19 08:58:36;;;;;;;;;;;;;;;6.74;48.99;101533.81;5033203;28;19998;-68
2022/11/19 09:01:09;;;;;;;;;;;;;;;6.75;49.09;101546.97;5033155;28;20512;-69
2022/11/19 09:03:34;;;;;;;;;;;;;;;6.88;48.08;101551.66;5033039;28;19952;-67
2022/11/19 09:05:59;;;;;;;;;;;;;;;6.77;48.92;101547.63;5033653;28;20018;-69
2022/11/19 09:08:25;;;;;;;;;;;;;;;6.63;47.91;101542.25;5033024;28;19920;-68
2022/11/19 09:10:50;;;;;;;;;;;;;;;7.06;47.57;101544.13;5047718;28;19925;-68
2022/11/19 09:13:15;;;;;;;;;;;;;;;6.51;48.56;101551.72;5033004;28;20413;-68
2022/11/19 09:15:40;;;;;;;;;;;;;;;6.70;48.38;101552.03;5032998;28;19925;-68
2022/11/19 09:18:05;;;;;;;;;;;;;;;6.51;47.91;101546.38;5033254;28;19943;-69
2022/11/19 09:20:31;;;;;;;;;;;;;;;6.56;48.34;101549.34;5033310;28;19921;-69
2022/11/19 09:22:56;;;;;;;;;;;;;;;5.99;49.58;101551.69;5032941;28;20281;-70
2022/11/19 09:25:21;;;;;;;;;;;;;;;6.55;48.33;101542.34;5021747;28;19922;-67
2022/11/19 09:27:46;;;;;;;;;;;;;;;6.68;47.54;101556.72;5013085;28;19925;-68
2022/11/19 09:30:12;;;;;;;;;;;;;;;5.99;48.58;101554.34;5011729;28;20230;-69
2022/11/19 09:32:37;;;;;;;;;;;;;;;7.18;46.84;101555.16;5003084;28;20408;-68
2022/11/19 09:35:02;;;;;;;;;;;;;;;7.38;46.61;101550.91;5018492;28;19921;-68
2022/11/19 09:37:30;;;;;;;;;;;;;;;7.50;46.29;101557.44;5023139;28;19939;-70
2022/11/19 09:39:55;;;;;;;;;;;;;;;7.68;45.25;101572.06;5021927;28;19971;-69
2022/11/19 09:42:26;;;;;;;;;;;;;;;7.63;45.00;101561.09;5016954;28;19968;-69
2022/11/19 09:45:07;;;;;;;;;;;;;;;7.97;45.11;101571.97;5033086;28;19909;-69
2022/11/19 09:47:38;;;;;;;;;;;;;;;7.32;46.50;101575.72;5032912;28;19917;-69
2022/11/19 09:50:15;;;;;;;;;;;;;;;7.04;46.35;101578.22;5032249;28;20443;-68
2022/11/19 09:53:06;;;;;;;;;;;;;;;7.24;46.16;101581.16;5024478;28;20004;-70
2022/11/19 09:55:36;;;;;;;;;;;;;;;7.05;45.33;101577.22;5024206;28;19921;-68
2022/11/19 09:58:21;;;;;;;;;;;;;;;7.29;45.94;101581.44;5025768;28;19948;-68
2022/11/19 10:00:47;;;;;;;;;;;;;;;7.77;44.83;101578.97;5023577;28;19927;-69
2022/11/19 10:03:13;;;;;;;;;;;;;;;7.74;44.38;101570.50;5022951;28;20004;-69
2022/11/19 10:05:46;;;;;;;;;;;;;;;7.50;44.76;101571.66;5022015;28;19963;-68
2022/11/19 10:08:35;;;;;;;;;;;;;;;7.77;44.90;101565.59;5022145;28;19929;-69
2022/11/19 10:11:09;;;;;;;;;;;;;;;7.64;44.37;101567.28;5036124;28;20347;-69
2022/11/19 10:13:34;;;;;;;;;;;;;;;7.83;44.24;101564.00;5028323;28;20381;-69
2022/11/19 10:16:18;;;;;;;;;;;;;;;7.53;44.35;101562.41;5024856;28;19921;-68
2022/11/19 10:18:49;;;;;;;;;;;;;;;7.79;44.09;101573.41;5022961;28;20011;-68
2022/11/19 10:21:15;;;;;;;;;;;;;;;7.73;43.29;101569.66;5022889;28;19983;-68
2022/11/19 10:23:40;;;;;;;;;;;;;;;8.31;43.09;101565.97;5024208;28;20397;-68
2022/11/19 10:26:10;;;;;;;;;;;;;;;7.88;43.80;101574.97;5021393;28;19928;-68
2022/11/19 10:28:37;;;;;;;;;;;;;;;7.76;42.90;101582.63;5022607;28;20273;-68
2022/11/19 10:31:05;;;;;;;;;;;;;;;7.91;43.01;101582.59;5019751;28;19926;-67
2022/11/19 10:33:41;;;;;;;;;;;;;;;8.48;41.84;101579.88;5023072;28;20408;-67
2022/11/19 10:36:08;;;;;;;;;;;;;;;8.13;42.15;101581.59;5022619;28;19923;-69
2022/11/19 10:38:44;;;;;;;;;;;;;;;7.94;41.50;101580.38;5025114;28;19996;-67
2022/11/19 10:41:24;;;;;;;;;;;;;;;8.40;42.12;101596.09;5023176;28;19968;-68
2022/11/19 10:43:52;;;;;;;;;;;;;;;8.12;41.73;101592.50;5022702;28;19984;-68
2022/11/19 10:46:20;;;;;;;;;;;;;;;7.68;42.22;101587.28;5023471;28;19967;-68
2022/11/19 10:48:48;;;;;;;;;;;;;;;7.85;41.36;101584.19;5031640;28;19928;-69
2022/11/19 10:51:13;;;;;;;;;;;;;;;8.50;41.03;101584.03;5029189;28;19940;-68
2022/11/19 10:53:39;;;;;;;;;;;;;;;8.50;40.67;101578.69;5030269;28;19917;-68
2022/11/19 10:56:08;;;;;;;;;;;;;;;8.37;40.53;101581.22;5030031;28;19975;-68
2022/11/19 10:58:38;;;;;;;;;;;;;;;8.26;40.85;101587.09;5027351;28;20436;-69
2022/11/19 11:01:11;;;;;;;;;;;;;;;8.14;41.61;101588.59;5027818;28;19927;-69
2022/11/19 11:03:46;;;;;;;;;;;;;;;8.56;40.64;101579.75;5028697;28;19929;-68
2022/11/19 11:06:12;;;;;;;;;;;;;;;8.16;40.31;101569.66;5028549;28;19948;-69
2022/11/19 11:08:48;;;;;;;;;;;;;;;8.58;40.73;101575.88;5027584;28;19968;-69
2022/11/19 11:17:17;;;;;;;;;;;;;;;9.11;38.91;101578.91;5029928;28;19929;-69
2022/11/19 11:19:42;;;;;;;;;;;;;;;8.03;39.84;101570.38;5030774;28;20561;-69
2022/11/19 11:22:08;;;;;;;;;;;;;;;9.22;38.13;101579.16;5030157;28;19921;-68
2022/11/19 11:24:35;;;;;;;;;;;;;;;9.00;39.59;101572.25;5030250;28;19931;-69
2022/11/19 11:27:33;;;;;;;;;;;;;;;9.08;39.41;101571.25;5012915;28;20459;-67
2022/11/19 11:30:05;;;;;;;;;;;;;;;9.16;39.23;101573.78;4909821;29;20017;-69
2022/11/19 11:32:31;;;;;;;;;;;;;;;9.27;38.54;101568.69;4909268;29;19923;-72
2022/11/19 11:34:56;;;;;;;;;;;;;;;9.24;37.77;101571.75;4912425;29;20110;-69
2022/11/19 11:37:23;;;;;;;;;;;;;;;9.29;37.22;101571.16;4909523;29;19926;-69
2022/11/19 11:39:51;;;;;;;;;;;;;;;8.84;39.02;101569.88;4909465;29;20411;-70
2022/11/19 11:42:17;;;;;;;;;;;;;;;9.36;37.78;101563.97;4910063;29;19929;-68
2022/11/19 11:44:51;;;;;;;;;;;;;;;9.08;38.19;101568.56;4910339;29;20284;-70
2022/11/19 11:47:26;;;;;;;;;;;;;;;8.93;38.60;101563.31;4907739;29;19919;-70
2022/11/19 11:50:13;;;;;;;;;;;;;;;9.55;37.84;101569.41;4907251;29;20201;-69
2022/11/19 11:52:41;;;;;;;;;;;;;;;9.36;37.69;101559.44;4908367;29;20709;-70
2022/11/19 11:55:30;;;;;;;;;;;;;;;9.73;37.60;101566.16;4893578;29;19923;-69
2022/11/19 11:57:57;;;;;;;;;;;;;;;8.75;37.23;101558.47;4893631;29;20439;-69
2022/11/19 12:00:32;;;;;;;;;;;;;;;8.68;37.14;101551.41;4907361;29;20375;-69
2022/11/19 12:03:03;;;;;;;;;;;;;;;8.71;38.94;101540.28;4906847;29;19918;-69
2022/11/19 12:05:30;;;;;;;;;;;;;;;8.79;38.04;101543.66;4977475;28;19928;-70
2022/11/19 12:08:03;;;;;;;;;;;;;;;10.00;37.35;101534.84;5028102;28;19921;-69
2022/11/19 12:10:47;;;;;;;;;;;;;;;9.16;37.63;101549.66;5027260;28;19929;-69
2022/11/19 12:13:31;;;;;;;;;;;;;;;9.19;38.24;101546.56;5028383;28;20015;-73
2022/11/19 12:16:01;;;;;;;;;;;;;;;9.16;37.51;101538.94;5026044;28;20373;-69
2022/11/19 12:18:43;;;;;;;;;;;;;;;9.21;36.51;101541.81;5028344;28;20356;-69
2022/11/19 12:21:09;;;;;;;;;;;;;;;9.49;35.82;101539.91;5027925;28;20381;-69
2022/11/19 12:23:43;;;;;;;;;;;;;;;9.20;37.19;101535.63;5027587;28;19921;-69
2022/11/19 12:26:12;;;;;;;;;;;;;;;9.19;37.25;101539.34;5025257;28;20024;-69
2022/11/19 12:28:58;;;;;;;;;;;;;;;9.97;36.51;101536.09;5026450;28;19925;-70
2022/11/19 12:31:37;;;;;;;;;;;;;;;9.07;37.85;101535.56;5022321;28;20289;-69
2022/11/19 12:34:21;;;;;;;;;;;;;;;10.11;36.59;101531.59;5022818;28;20413;-70
2022/11/19 12:36:51;;;;;;;;;;;;;;;10.04;35.80;101530.72;5024662;28;19928;-69
2022/11/19 12:39:22;;;;;;;;;;;;;;;10.20;35.75;101533.88;5003791;28;20389;-69
2022/11/19 12:42:10;;;;;;;;;;;;;;;10.40;35.69;101532.00;5006214;28;20389;-69
2022/11/19 12:44:40;;;;;;;;;;;;;;;10.19;35.32;101537.59;5007061;28;20077;-69
2022/11/19 12:47:11;;;;;;;;;;;;;;;9.69;36.40;101538.91;5005401;28;19939;-69
2022/11/19 12:49:49;;;;;;;;;;;;;;;10.28;35.32;101530.19;5005366;28;19929;-69
2022/11/19 12:52:34;;;;;;;;;;;;;;;9.62;35.52;101534.56;5016395;28;19925;-70
2022/11/19 12:55:08;;;;;;;;;;;;;;;9.80;36.26;101525.94;5025006;28;20089;-70
2022/11/19 12:57:54;;;;;;;;;;;;;;;9.86;35.58;101523.28;5025084;28;19925;-71
2022/11/19 13:00:20;;;;;;;;;;;;;;;9.29;36.66;101530.94;4963421;28;19925;-70
2022/11/19 13:03:04;;;;;;;;;;;;;;;9.68;35.30;101529.22;4964261;28;20020;-70
2022/11/19 13:05:36;;;;;;;;;;;;;;;8.98;35.86;101520.69;4963841;28;20290;-69
2022/11/19 13:08:10;;;;;;;;;;;;;;;9.48;35.53;101517.59;4962536;28;19922;-70
2022/11/19 13:10:38;;;;;;;;;;;;;;;9.56;34.78;101522.78;4962457;28;19934;-70
2022/11/19 13:13:06;;;;;;;;;;;;;;;9.67;35.72;101524.03;4961862;28;19922;-69
2022/11/19 13:15:37;;;;;;;;;;;;;;;9.95;35.84;101526.56;4962567;28;19922;-69
2022/11/19 13:18:05;;;;;;;;;;;;;;;9.65;35.22;101521.56;4944991;28;19961;-69
2022/11/19 13:20:57;;;;;;;;;;;;;;;10.12;35.77;101527.88;4962643;28;19945;-70